Share

Alibag, India

10:35 PM IST on April 23, 2014 (GMT +0530)
Chhatrapati Shivaji International (VABB) Elev 46 ft | 19.10 °N, 72.86 °E | Change Station

Current weather conditions updated 25 minutes ago

Smoke
Smoke
91 °F
Feels Like 94 °F
N
2
Wind Variable Wind from Variable
Sunrise 6:16 AM
Sunset 6:57 PM
Moon Waning Crescent

Tomorrow is forecast to be Much Cooler than today.

Pressure 29.77 in
Visibility 2.2 miles
Clouds
Heat Index 94 °F
Dew Point 66 °F
Humidity 43%
Rainfall 0.00 in
Snow Depth Not available.
UV Not available.
Pollen Not available.
Air Quality Not available.
Flu Activity Not available.
METAR VABB 231640Z VRB02KT 3500 FU NSC 33/19 Q1008 NOSIG

More Conditions Fewer Conditions

Pressure 29.77 in
Visibility 2.2 miles
Clouds
Heat Index 94 °F
Dew Point 66 °F
Humidity 43%
Rainfall 0.00 in
Snow Depth Not available.
UV Not available.
Pollen Not available.
Air Quality Not available.
Flu Activity Not available.
METAR VABB 231640Z VRB02KT 3500 FU NSC 33/19 Q1008 NOSIG

More Conditions Fewer Conditions

10-Day Weather Forecast

Almanac

Astronomy

Apr. 23, 2014 Rise Set
Actual Time 6:16 AM IST 6:57 PM IST
Civil Twilight 5:53 AM IST 7:20 PM IST
Nautical Twilight 5:27 AM IST 7:46 PM IST
Astronomical Twilight 5:00 AM IST 8:13 PM IST
Moon 1:35 AM IST 1:26 PM IST
Length of Visible Light 13h 26m
Length of Day
12h 41m
Tomorrow will be 0m 57s longer.
Waning Crescent, 34% of the Moon is Illuminated
Today
Waning Crescent
Apr 29
New
May 6
First Quarter
May 14
Full
May 21
Last Quarter

Today's Extremes

Country Highs Country Lows

Community

  • Stunning Sunrise
    Stunning Sunrise
  • spring flowers
    spring flowers
  • Earth Day Spectrum Ove' Blue
    Earth Day Spectrum Ove' Blue
  • BARN B&W
    BARN B&W
  • April Sunset
    April Sunset

WunderPhotos

Upload Photos

1,704,338 photos uploaded!

WunderBlogs® & News

Nearby

Snow Depth

Not available.

Coastal Water Temperatures

Place Temperature
No Stations Reporting

Earthquake Activity

City Distance Mag. Time & Date
No recent earthquake activity has been reported nearby.
Minimum magnitude displayed is 2.5.

Nearby Weather Stations

There are no personal weather stations in this area.

What do you think?

We're not finished. Please let us know what you like, what you don't like, and what you are still missing.